Terminal Aerodrome Forecast
Issued by NWS

Current Version | Previous Version | Text Only | Print | Product List | Glossary Off
Versions: 1 2 3 4 5 6 7 8 9 10 11 12 13 14 15 16 17 18 19 20 21

000
FTUS41 KRLX 181500 AAA
TAFCKB
TAF AMD
KCKB 181501Z 1815/1912 02008KT P6SM SKC
     FM182200 VRB03KT P6SM SCT140=

USA.gov is the U.S. government's official web portal to all federal, state and local government web resources and services.